Airfield :
LOGIN :

Register | Disclaimer

   EN    FR    IT 

 










Legend :    VFR   Marginal VFR   IFR   Intensive IFR   Very Intensive IFR
Visi :
Ceiling :
>= 8 km
>= 3000ft
5 to 8 km
1000 to 3000 ft
1500m to 5 km
500 to 1000 ft
800 to 1500m
200 to 500 ft
< 800m
< 200 ft
Symbols :   Thunderstorms  Fog  Heavy snow  Heavy precipitations  Wind > 20 kt
SIGMETs :     Misc.  Thunderstorms  Icing  Turbulence  Mountain Waves  Volcanic Ashes







- Airport Elevation : 468 ft
- IATA code : GRO


LEGE - Girona Costa Brava

CURRENT METAR :
  • 241730Z 03010KT 4000 RA FEW012 BKN018 09/08 Q1012

EXPIRED METARs :
  • 241700Z 02005KT 340V070 7000 RA FEW012 BKN025 08/08 Q1013
  • 241630Z 02008KT 350V060 7000 RA SCT012 BKN022 08/08 Q1012
  • 241600Z 04011KT 7000 RA SCT012 BKN022 09/08 Q1013
  • 241530Z 02008KT 330V050 7000 RA SCT012 BKN028 09/08 Q1013
  • 241500Z 02005KT 340V040 8000 RA FEW010 BKN028 09/08 Q1013

TAF TAF LEGE
Valid from the 24 at 18:00 until the 25 at 18:00 UTC


241700Z 2418/2518 02008KT 9999 BKN030 TX16/2513Z TN06/2506Z
BECMG 2418/2420 07014KT
BECMG 2501/2503 18012KT
TEMPO 2418/2503 08018G36KT 4000 TSRA BKN014 FEW020CB
PROB30
TEMPO 2421/2501 08022G43KT 3000 TS +SHRA BKN010 SCT020CB
No reported NOTAMs for that airfield.
1 SIGMET reported for the Barcelona FIR (LECB) :
 
Severe turbulence
LECB BARCELONA FIR/UIR SEV TURB FCST WI N3920 W00120 - N3710 E00010 - N3630 W00130 - N3720 W00140 FL200/250 STNR NC=



MET'MAP, your aeronautical weather chart ! - Copyright ORBIFLY December 2007 - Disclaimer

ORBIFLY MET'MAP TEAM :

Programming & Development : Alexandra Zaïnal
Concept & Development : Baudouin d'Aumeries
Co-Development & Prog : Marc-Olivier Méhu
Technical & hardware support : Manuel Goepfert

Contact : metmap@orbifly.com




SOURCES & CREDITS :

   NOAA